Time;durP1;ratioP1;P1;durP2;ratioP2;P2;SDS_P1;SDS_P2;PMS_P1;PMS_P2;Temp;Humidity;BMP_temperature;BMP_pressure;BME280_temperature;BME280_humidity;BME280_pressure;Samples;Min_cycle;Max_cycle;Signal;HPM_P1;HPM_P2
2023/10/26 00:01:37;;;;;;;39.77;28.77;;;;;8.00;99184.00;;;;10527256;27;20204;-73
2023/10/26 00:06:39;;;;;;;41.13;30.50;;;;;7.90;99172.00;;;;10543707;27;20286;-72
2023/10/26 00:11:41;;;;;;;41.87;29.77;;;;;7.90;99171.00;;;;10556077;28;20230;-72
2023/10/26 00:16:43;;;;;;;39.27;28.93;;;;;7.80;99174.00;;;;10552996;27;20261;-72
2023/10/26 00:21:45;;;;;;;45.50;28.23;;;;;7.70;99187.00;;;;10545964;28;20227;-72
2023/10/26 00:26:47;;;;;;;41.73;29.73;;;;;7.70;99176.00;;;;10551976;27;20204;-72
2023/10/26 00:31:48;;;;;;;36.33;29.20;;;;;7.70;99182.00;;;;10525925;27;20731;-72
2023/10/26 00:36:50;;;;;;;44.40;28.87;;;;;7.60;99183.00;;;;10534685;28;20248;-72
2023/10/26 00:41:53;;;;;;;39.10;27.77;;;;;7.60;99193.00;;;;10515238;28;20231;-72
2023/10/26 00:46:55;;;;;;;42.47;29.13;;;;;7.50;99193.00;;;;10541853;28;20915;-72
2023/10/26 00:52:01;;;;;;;43.97;30.00;;;;;7.50;99187.00;;;;10525262;28;20212;-72
2023/10/26 00:57:04;;;;;;;46.83;30.37;;;;;7.50;99180.00;;;;10525750;28;20267;-72
2023/10/26 01:02:06;;;;;;;50.17;32.73;;;;;7.50;99172.00;;;;10553234;28;20211;-72
2023/10/26 01:07:07;;;;;;;47.43;32.37;;;;;7.50;99173.00;;;;10537649;28;20226;-72
2023/10/26 01:12:12;;;;;;;43.67;29.77;;;;;7.50;99178.00;;;;10537901;28;20207;-72
2023/10/26 01:17:14;;;;;;;41.90;29.77;;;;;7.40;99182.00;;;;10536090;28;21095;-72
2023/10/26 01:22:16;;;;;;;42.67;29.07;;;;;7.30;99177.00;;;;10543545;28;20215;-72
2023/10/26 01:27:19;;;;;;;44.17;29.07;;;;;7.30;99188.00;;;;10546564;28;20705;-72
2023/10/26 01:32:21;;;;;;;41.47;29.53;;;;;7.20;99190.00;;;;10531946;28;20214;-72
2023/10/26 01:37:22;;;;;;;43.67;28.17;;;;;7.20;99174.00;;;;10521767;28;20244;-72
2023/10/26 01:42:24;;;;;;;42.80;28.90;;;;;7.10;99178.00;;;;10558607;27;20227;-72
2023/10/26 01:47:26;;;;;;;47.87;29.07;;;;;7.00;99172.00;;;;10533046;27;20205;-73
2023/10/26 01:52:28;;;;;;;57.37;32.73;;;;;7.00;99159.00;;;;10516472;27;20259;-72
2023/10/26 01:57:30;;;;;;;44.93;29.00;;;;;6.90;99159.00;;;;10536542;28;20219;-71
2023/10/26 02:02:32;;;;;;;45.67;28.37;;;;;6.90;99168.00;;;;10518806;27;20837;-72
2023/10/26 02:07:34;;;;;;;51.17;32.93;;;;;6.80;99161.00;;;;10550977;28;20870;-72
2023/10/26 02:12:35;;;;;;;51.43;32.63;;;;;6.80;99161.00;;;;10556237;27;20200;-72
2023/10/26 02:17:37;;;;;;;59.77;33.17;;;;;6.80;99159.00;;;;10537567;28;20220;-72
2023/10/26 02:22:40;;;;;;;60.13;34.23;;;;;6.90;99142.00;;;;10539054;27;20276;-72
2023/10/26 02:27:41;;;;;;;56.07;33.10;;;;;6.90;99134.00;;;;10520159;28;20216;-72
2023/10/26 02:32:43;;;;;;;49.03;32.07;;;;;6.80;99130.00;;;;10555652;27;20196;-72
2023/10/26 02:37:48;;;;;;;50.93;29.67;;;;;6.80;99138.00;;;;10541419;28;20224;-73
2023/10/26 02:42:50;;;;;;;51.50;29.57;;;;;6.70;99128.00;;;;10557673;27;20246;-72
2023/10/26 02:47:53;;;;;;;43.93;28.10;;;;;6.60;99123.00;;;;10539928;28;20255;-72
2023/10/26 02:52:56;;;;;;;42.60;27.53;;;;;6.60;99142.00;;;;10523133;28;20262;-72
2023/10/26 02:57:58;;;;;;;55.60;31.13;;;;;6.60;99130.00;;;;10559993;27;20698;-72
2023/10/26 03:03:01;;;;;;;53.37;31.00;;;;;6.60;99140.00;;;;10528983;28;20205;-72
2023/10/26 03:08:04;;;;;;;53.60;30.17;;;;;6.60;99151.00;;;;10528525;27;20828;-72
2023/10/26 03:13:06;;;;;;;65.60;34.13;;;;;6.70;99137.00;;;;10555445;28;20214;-72
2023/10/26 03:18:08;;;;;;;55.43;30.30;;;;;6.80;99127.00;;;;10530997;27;20634;-72
2023/10/26 03:23:10;;;;;;;55.90;30.53;;;;;6.90;99123.00;;;;10546818;28;20208;-72
2023/10/26 03:28:11;;;;;;;50.27;27.73;;;;;6.90;99126.00;;;;10547425;27;20675;-72
2023/10/26 03:33:13;;;;;;;48.97;29.03;;;;;6.80;99123.00;;;;10556414;27;20204;-72
2023/10/26 03:38:15;;;;;;;52.47;29.27;;;;;6.80;99109.00;;;;10532359;27;20225;-72
2023/10/26 03:43:17;;;;;;;49.30;28.93;;;;;6.80;99118.00;;;;10530363;28;20274;-72
2023/10/26 03:48:19;;;;;;;47.20;28.57;;;;;6.80;99109.00;;;;10533123;27;20196;-72
2023/10/26 03:53:21;;;;;;;43.50;27.37;;;;;6.70;99106.00;;;;10529230;28;20194;-71
2023/10/26 03:58:23;;;;;;;41.77;25.97;;;;;6.60;99095.00;;;;10551125;27;20231;-72
2023/10/26 04:03:25;;;;;;;43.97;26.47;;;;;6.50;99091.00;;;;10551346;27;20215;-72
2023/10/26 04:08:26;;;;;;;44.93;25.90;;;;;6.40;99096.00;;;;10547290;27;20666;-72
2023/10/26 04:13:30;;;;;;;41.07;24.87;;;;;6.30;99088.00;;;;10557823;27;20660;-71
2023/10/26 04:18:32;;;;;;;43.40;26.17;;;;;6.30;99095.00;;;;10546920;27;20299;-71
2023/10/26 04:23:34;;;;;;;45.17;28.37;;;;;6.20;99086.00;;;;10564917;27;20857;-72
2023/10/26 04:28:36;;;;;;;52.60;29.67;;;;;6.20;99095.00;;;;10547712;27;20587;-72
2023/10/26 04:33:52;;;;;;;57.17;30.73;;;;;6.30;99081.00;;;;10536029;28;20202;-71
2023/10/26 04:38:54;;;;;;;52.50;30.00;;;;;6.30;99068.00;;;;10542074;27;20227;-72
2023/10/26 04:43:56;;;;;;;46.37;27.40;;;;;6.20;99067.00;;;;10528117;28;20295;-72
2023/10/26 04:48:58;;;;;;;54.23;29.80;;;;;6.20;99061.00;;;;10528340;28;20280;-72
2023/10/26 04:54:00;;;;;;;56.07;29.73;;;;;6.30;99051.00;;;;10518842;28;20226;-72
2023/10/26 04:59:02;;;;;;;52.10;29.33;;;;;6.30;99058.00;;;;10548926;28;20689;-72
2023/10/26 05:04:04;;;;;;;46.93;26.33;;;;;6.20;99039.00;;;;10530915;28;20763;-72
2023/10/26 05:09:06;;;;;;;51.03;25.90;;;;;6.20;99042.00;;;;10552242;27;20250;-72
2023/10/26 05:14:09;;;;;;;45.83;26.73;;;;;6.10;99040.00;;;;10548167;27;20224;-71
2023/10/26 05:19:10;;;;;;;40.67;23.73;;;;;6.00;99031.00;;;;10527109;28;20216;-71
2023/10/26 05:24:12;;;;;;;44.20;25.27;;;;;5.90;99020.00;;;;10548222;27;20223;-71
2023/10/26 05:29:14;;;;;;;44.43;24.97;;;;;5.80;99030.00;;;;10547324;27;20315;-70
2023/10/26 05:34:17;;;;;;;45.93;25.40;;;;;5.70;99009.00;;;;10540892;27;20204;-71
2023/10/26 05:39:19;;;;;;;48.50;25.83;;;;;5.70;99016.00;;;;10548055;27;20708;-71
2023/10/26 05:44:21;;;;;;;51.33;26.57;;;;;5.70;99005.00;;;;10544367;27;20207;-70
2023/10/26 05:49:23;;;;;;;50.97;27.37;;;;;5.70;99010.00;;;;10533164;27;20216;-71
2023/10/26 05:54:25;;;;;;;55.27;29.13;;;;;5.80;99008.00;;;;10544406;28;21121;-70
2023/10/26 05:59:26;;;;;;;44.90;24.83;;;;;5.80;99004.00;;;;10531425;27;20220;-71
2023/10/26 06:04:28;;;;;;;44.03;25.63;;;;;5.70;99005.00;;;;10550803;27;20853;-71
2023/10/26 06:09:30;;;;;;;43.03;24.73;;;;;5.60;99001.00;;;;10514018;27;20204;-71
2023/10/26 06:14:32;;;;;;;45.00;24.67;;;;;5.60;98997.00;;;;10501273;27;20298;-71
2023/10/26 06:19:35;;;;;;;49.03;26.70;;;;;5.50;98990.00;;;;10496072;27;20228;-70
2023/10/26 06:24:37;;;;;;;53.60;28.93;;;;;5.60;98992.00;;;;10505140;27;20188;-72
2023/10/26 06:29:40;;;;;;;47.93;26.23;;;;;5.70;98993.00;;;;10531198;27;20731;-72
2023/10/26 06:34:43;;;;;;;66.47;31.97;;;;;5.90;98977.00;;;;10518314;27;20192;-72
2023/10/26 06:39:45;;;;;;;62.27;30.27;;;;;6.10;98984.00;;;;10540821;27;20243;-72
2023/10/26 06:44:47;;;;;;;56.37;28.63;;;;;6.30;98991.00;;;;10523008;27;20665;-72
2023/10/26 06:49:49;;;;;;;56.03;30.37;;;;;6.40;99004.00;;;;10528871;27;20200;-73
2023/10/26 06:54:51;;;;;;;42.07;25.40;;;;;6.30;98999.00;;;;10534156;27;20204;-72
2023/10/26 06:59:53;;;;;;;45.83;26.67;;;;;6.40;99011.00;;;;10518291;27;20220;-72
2023/10/26 07:04:54;;;;;;;46.17;27.20;;;;;6.50;99011.00;;;;10551515;27;20283;-73
2023/10/26 07:09:57;;;;;;;61.53;30.63;;;;;6.80;99001.00;;;;10537793;27;20195;-72
2023/10/26 07:14:59;;;;;;;61.00;32.03;;;;;7.20;98999.00;;;;10520444;28;20223;-72
2023/10/26 07:20:05;;;;;;;58.50;30.73;;;;;7.50;99005.00;;;;10545089;28;20225;-73
2023/10/26 07:25:07;;;;;;;58.73;32.17;;;;;7.70;99016.00;;;;10503674;28;20282;-72
2023/10/26 07:30:11;;;;;;;53.77;32.10;;;;;8.10;98997.00;;;;10540489;27;20201;-72
2023/10/26 07:35:16;;;;;;;55.47;30.73;;;;;8.50;98993.00;;;;10509121;27;20209;-73
2023/10/26 07:40:18;;;;;;;53.97;29.90;;;;;8.80;98992.00;;;;10538008;27;20678;-73
2023/10/26 07:45:29;;;;;;;51.03;29.40;;;;;9.00;99000.00;;;;10518257;28;20220;-73
2023/10/26 07:50:31;;;;;;;51.97;28.33;;;;;9.20;99006.00;;;;10527106;28;20319;-74
2023/10/26 07:55:33;;;;;;;44.10;25.13;;;;;9.20;98998.00;;;;10551700;27;20200;-73
2023/10/26 08:00:38;;;;;;;42.23;24.70;;;;;9.30;99001.00;;;;10538352;27;20796;-73
2023/10/26 08:05:40;;;;;;;42.00;24.33;;;;;9.30;99008.00;;;;10546552;27;20699;-73
2023/10/26 08:10:42;;;;;;;41.67;24.67;;;;;9.30;99014.00;;;;10542047;27;20196;-73
2023/10/26 08:15:45;;;;;;;39.87;23.80;;;;;9.30;99020.00;;;;10548393;27;20220;-73
2023/10/26 08:21:06;;;;;;;37.57;22.37;;;;;9.40;99018.00;;;;10544822;27;20204;-73
2023/10/26 08:26:09;;;;;;;38.80;23.90;;;;;9.50;99032.00;;;;10543573;27;20232;-73
2023/10/26 08:31:11;;;;;;;40.73;23.93;;;;;9.60;99015.00;;;;10549575;28;20276;-73
2023/10/26 08:36:13;;;;;;;33.80;21.33;;;;;9.90;99015.00;;;;10545272;28;20196;-73
2023/10/26 08:41:15;;;;;;;31.20;20.83;;;;;10.00;99020.00;;;;10539781;27;20195;-75
2023/10/26 08:46:18;;;;;;;30.17;20.17;;;;;10.10;99014.00;;;;10548844;27;20236;-76
2023/10/26 08:51:20;;;;;;;30.53;18.93;;;;;10.10;99002.00;;;;10513599;28;20219;-76
2023/10/26 08:56:23;;;;;;;30.33;19.63;;;;;10.10;98993.00;;;;10559520;28;20570;-75
2023/10/26 09:01:25;;;;;;;30.30;19.70;;;;;10.10;98987.00;;;;10557940;28;20207;-76
2023/10/26 09:06:42;;;;;;;35.53;19.77;;;;;10.20;98987.00;;;;10507421;28;20299;-76
2023/10/26 09:11:46;;;;;;;32.80;19.77;;;;;10.20;98983.00;;;;10541124;28;20354;-75
2023/10/26 09:16:49;;;;;;;32.00;19.87;;;;;10.30;98976.00;;;;10548372;28;20219;-76
2023/10/26 09:21:53;;;;;;;28.60;18.57;;;;;10.30;98961.00;;;;10533598;28;20291;-76
2023/10/26 09:26:56;;;;;;;29.30;17.87;;;;;10.20;98962.00;;;;10528067;28;20201;-77
2023/10/26 09:31:58;;;;;;;27.70;18.73;;;;;10.10;98959.00;;;;10538880;28;20296;-76
2023/10/26 09:37:03;;;;;;;28.33;17.27;;;;;10.30;98919.00;;;;10535450;28;20216;-75
2023/10/26 09:42:11;;;;;;;27.60;18.47;;;;;10.50;98921.00;;;;10544299;28;20287;-76
2023/10/26 09:47:15;;;;;;;34.93;19.00;;;;;10.80;98937.00;;;;10538997;28;20266;-76
2023/10/26 09:52:17;;;;;;;30.97;19.70;;;;;11.10;98945.00;;;;10549319;27;20291;-73
2023/10/26 09:57:26;;;;;;;27.42;18.23;;;;;11.20;98957.00;;;;10531100;27;21034;-73
2023/10/26 10:02:28;;;;;;;28.53;18.23;;;;;11.40;98966.00;;;;10525048;27;20251;-73
2023/10/26 10:07:43;;;;;;;27.43;17.83;;;;;11.40;98973.00;;;;10537060;27;20233;-72
2023/10/26 10:12:52;;;;;;;24.27;16.73;;;;;11.30;98970.00;;;;10533413;27;20200;-72
2023/10/26 10:17:53;;;;;;;24.85;17.27;;;;;11.70;98981.00;;;;10517412;28;20234;-73
2023/10/26 10:22:58;;;;;;;25.15;17.52;;;;;12.20;98965.00;;;;10536229;27;20204;-73
2023/10/26 10:28:00;;;;;;;19.17;13.90;;;;;11.90;98969.00;;;;10549022;27;21136;-72
2023/10/26 10:33:03;;;;;;;16.48;12.98;;;;;11.40;98970.00;;;;10541237;27;20258;-73
2023/10/26 10:38:11;;;;;;;28.23;18.10;;;;;11.80;98970.00;;;;10527310;27;20220;-72
2023/10/26 10:43:13;;;;;;;28.20;17.95;;;;;12.30;98983.00;;;;10534951;27;20579;-73
2023/10/26 10:48:15;;;;;;;26.42;15.18;;;;;12.50;98972.00;;;;10540553;27;20291;-73
2023/10/26 10:53:17;;;;;;;19.00;13.98;;;;;12.70;98965.00;;;;10522353;27;20200;-72
2023/10/26 10:58:19;;;;;;;19.95;14.80;;;;;12.90;98955.00;;;;10524884;28;20224;-73
2023/10/26 11:03:24;;;;;;;18.77;13.93;;;;;12.90;98947.00;;;;10545188;27;20196;-75
2023/10/26 11:08:26;;;;;;;15.93;12.80;;;;;13.10;98957.00;;;;10553689;27;20196;-76
2023/10/26 11:13:28;;;;;;;18.70;12.90;;;;;13.60;98951.00;;;;10539863;27;20670;-76
2023/10/26 11:18:32;;;;;;;16.42;12.52;;;;;13.60;98955.00;;;;10537980;27;20216;-76
2023/10/26 11:23:34;;;;;;;17.15;12.60;;;;;13.60;98949.00;;;;10546832;27;20267;-76
2023/10/26 11:28:36;;;;;;;14.88;12.50;;;;;13.60;98959.00;;;;10546480;27;20304;-75
2023/10/26 11:33:45;;;;;;;16.73;12.57;;;;;13.50;98940.00;;;;10527120;27;20266;-76
2023/10/26 11:38:48;;;;;;;15.80;12.05;;;;;13.50;98951.00;;;;10552671;27;20215;-75
2023/10/26 11:43:50;;;;;;;14.38;12.45;;;;;13.30;98958.00;;;;10560472;28;20197;-76
2023/10/26 11:48:52;;;;;;;13.70;11.68;;;;;13.10;98956.00;;;;10550883;27;20188;-75
2023/10/26 11:53:55;;;;;;;15.07;12.52;;;;;13.10;98952.00;;;;10543619;28;20200;-76
2023/10/26 11:58:57;;;;;;;13.23;11.35;;;;;13.00;98951.00;;;;10538125;27;20891;-76
2023/10/26 12:03:59;;;;;;;14.68;11.75;;;;;13.00;98945.00;;;;10540691;28;20270;-75
2023/10/26 12:09:01;;;;;;;15.80;12.50;;;;;13.00;98948.00;;;;10530817;27;20202;-73
2023/10/26 12:14:03;;;;;;;15.68;12.50;;;;;13.30;98945.00;;;;10531290;28;20283;-73
2023/10/26 12:19:05;;;;;;;19.10;13.32;;;;;13.00;98927.00;;;;10541878;27;20226;-71
2023/10/26 12:24:07;;;;;;;16.75;12.35;;;;;12.60;98933.00;;;;10539393;27;20201;-71
2023/10/26 12:29:09;;;;;;;14.70;12.43;;;;;12.40;98931.00;;;;10547740;27;20196;-70
2023/10/26 12:34:11;;;;;;;18.40;12.98;;;;;12.40;98915.00;;;;10531236;28;20234;-70
2023/10/26 12:39:13;;;;;;;17.20;12.30;;;;;12.30;98916.00;;;;10540513;27;20234;-70
2023/10/26 12:44:20;;;;;;;16.00;13.27;;;;;12.20;98896.00;;;;10547194;27;20211;-71
2023/10/26 12:49:22;;;;;;;16.80;12.60;;;;;12.10;98907.00;;;;10522478;28;20229;-73
2023/10/26 12:54:23;;;;;;;16.88;14.30;;;;;12.10;98901.00;;;;10549585;27;20196;-71
2023/10/26 12:59:25;;;;;;;15.90;13.18;;;;;12.10;98903.00;;;;10548995;28;20216;-71
2023/10/26 13:04:27;;;;;;;16.92;14.00;;;;;12.00;98905.00;;;;10524981;28;20196;-71
2023/10/26 13:09:29;;;;;;;18.35;12.57;;;;;11.90;98910.00;;;;10517386;27;20574;-71
2023/10/26 13:14:31;;;;;;;14.45;12.15;;;;;11.90;98895.00;;;;10530546;28;20205;-70
2023/10/26 13:19:35;;;;;;;15.27;10.95;;;;;11.90;98899.00;;;;10536684;28;20220;-73
2023/10/26 13:24:36;;;;;;;12.43;7.75;;;;;12.00;98907.00;;;;10525585;28;20216;-72
2023/10/26 13:29:38;;;;;;;5.95;4.18;;;;;12.30;98886.00;;;;10551075;28;20892;-72
2023/10/26 13:34:40;;;;;;;6.35;3.95;;;;;13.20;98874.00;;;;10536416;27;20777;-73
2023/10/26 13:39:42;;;;;;;2.97;2.78;;;;;13.70;98866.00;;;;10543497;27;20224;-72
2023/10/26 13:44:44;;;;;;;4.32;2.58;;;;;13.50;98865.00;;;;10555756;27;20714;-73
2023/10/26 13:49:46;;;;;;;6.43;4.60;;;;;12.90;98865.00;;;;10537469;28;20904;-73
2023/10/26 13:54:48;;;;;;;3.95;2.35;;;;;13.00;98858.00;;;;10555059;27;20196;-73
2023/10/26 13:59:50;;;;;;;3.05;2.25;;;;;12.90;98871.00;;;;10551077;28;20244;-73
2023/10/26 14:04:52;;;;;;;4.63;1.90;;;;;12.80;98883.00;;;;10533761;27;20192;-73
2023/10/26 14:09:53;;;;;;;3.88;2.00;;;;;12.80;98870.00;;;;10554168;27;20669;-73
2023/10/26 14:14:55;;;;;;;1.90;1.70;;;;;12.60;98866.00;;;;10517352;28;20196;-73
2023/10/26 14:19:57;;;;;;;3.10;2.00;;;;;12.70;98855.00;;;;10541476;28;20212;-73
2023/10/26 14:24:59;;;;;;;2.58;1.90;;;;;13.10;98852.00;;;;10544339;27;20208;-73
2023/10/26 14:30:01;;;;;;;2.85;2.10;;;;;13.30;98838.00;;;;10555092;27;20197;-73
2023/10/26 14:35:04;;;;;;;2.85;1.90;;;;;13.10;98830.00;;;;10558049;27;20203;-74
2023/10/26 14:40:06;;;;;;;4.13;2.88;;;;;13.10;98833.00;;;;10531083;27;20225;-74
2023/10/26 14:45:08;;;;;;;3.03;2.40;;;;;13.70;98827.00;;;;10549713;27;20231;-73
2023/10/26 14:50:10;;;;;;;2.35;2.00;;;;;13.10;98818.00;;;;10537562;27;20207;-73
2023/10/26 14:55:12;;;;;;;2.92;2.40;;;;;12.90;98811.00;;;;10553959;27;20208;-73
2023/10/26 15:00:14;;;;;;;4.18;2.60;;;;;12.60;98821.00;;;;10535542;27;20230;-73
2023/10/26 15:05:16;;;;;;;2.83;2.63;;;;;12.70;98819.00;;;;10540295;27;20212;-73
2023/10/26 15:10:18;;;;;;;3.17;2.88;;;;;12.80;98821.00;;;;10554954;27;20204;-73
2023/10/26 15:15:27;;;;;;;4.45;2.80;;;;;12.90;98814.00;;;;10526445;28;20681;-73
2023/10/26 15:20:29;;;;;;;3.55;3.25;;;;;12.70;98813.00;;;;10542556;27;20300;-74
2023/10/26 15:25:35;;;;;;;3.55;3.25;;;;;12.40;98810.00;;;;10540977;27;20709;-74
2023/10/26 15:30:38;;;;;;;3.25;3.03;;;;;12.30;98829.00;;;;10521694;28;20183;-73
2023/10/26 15:35:39;;;;;;;4.38;3.53;;;;;12.20;98830.00;;;;10529902;27;20545;-73
2023/10/26 15:40:41;;;;;;;7.05;4.43;;;;;12.00;98826.00;;;;10512389;27;20204;-73
2023/10/26 15:45:49;;;;;;;5.82;4.47;;;;;12.00;98820.00;;;;10528124;27;20188;-72
2023/10/26 15:50:58;;;;;;;6.47;4.15;;;;;12.00;98814.00;;;;10527454;27;20634;-71
2023/10/26 15:56:06;;;;;;;5.72;5.05;;;;;12.00;98820.00;;;;10507461;27;20223;-72
2023/10/26 16:01:07;;;;;;;8.10;5.32;;;;;11.90;98809.00;;;;10529474;27;20202;-71
2023/10/26 16:06:14;;;;;;;6.55;5.72;;;;;11.90;98810.00;;;;10509154;27;20257;-70
2023/10/26 16:11:16;;;;;;;10.93;8.02;;;;;11.80;98800.00;;;;10486418;28;20236;-70
2023/10/26 16:16:18;;;;;;;9.57;6.30;;;;;11.70;98801.00;;;;10523279;27;20189;-72
2023/10/26 16:21:20;;;;;;;7.13;5.47;;;;;11.70;98801.00;;;;10490871;27;20338;-70
2023/10/26 16:26:22;;;;;;;8.63;5.60;;;;;11.60;98794.00;;;;10506892;27;20204;-70
2023/10/26 16:31:24;;;;;;;9.63;6.10;;;;;11.60;98787.00;;;;10509937;27;20200;-70
2023/10/26 16:36:26;;;;;;;12.13;6.63;;;;;11.50;98786.00;;;;10508302;28;20262;-71
2023/10/26 16:41:29;;;;;;;11.65;7.28;;;;;11.50;98788.00;;;;10525271;27;20973;-70
2023/10/26 16:46:34;;;;;;;12.10;9.48;;;;;11.50;98804.00;;;;10507860;28;20188;-72
2023/10/26 16:51:39;;;;;;;11.73;8.95;;;;;11.50;98802.00;;;;10494827;28;20299;-70
2023/10/26 16:56:42;;;;;;;12.98;9.00;;;;;11.50;98811.00;;;;10515583;27;20193;-72
2023/10/26 17:01:44;;;;;;;13.82;9.75;;;;;11.50;98812.00;;;;10520987;27;20219;-70
2023/10/26 17:06:46;;;;;;;11.95;9.32;;;;;11.50;98811.00;;;;10498249;27;20191;-70
2023/10/26 17:11:48;;;;;;;19.23;9.45;;;;;11.50;98810.00;;;;10503493;28;20275;-72
2023/10/26 17:16:50;;;;;;;11.93;8.98;;;;;11.50;98799.00;;;;10498948;28;20250;-70
2023/10/26 17:21:52;;;;;;;10.50;9.40;;;;;11.50;98794.00;;;;10516401;28;20305;-70
2023/10/26 17:26:53;;;;;;;10.73;9.63;;;;;11.50;98796.00;;;;10514352;28;20188;-72
2023/10/26 17:31:55;;;;;;;13.15;11.10;;;;;11.50;98788.00;;;;10499164;28;20193;-70
2023/10/26 17:36:59;;;;;;;13.65;10.05;;;;;11.40;98772.00;;;;10496972;28;21539;-71
2023/10/26 17:42:01;;;;;;;16.20;10.57;;;;;11.40;98772.00;;;;10518638;28;20305;-71
2023/10/26 17:47:03;;;;;;;14.10;10.25;;;;;11.40;98782.00;;;;10516577;28;20185;-72
2023/10/26 17:52:05;;;;;;;19.65;11.32;;;;;11.40;98792.00;;;;10518060;28;20308;-70
2023/10/26 17:57:07;;;;;;;18.90;12.33;;;;;11.40;98792.00;;;;10496861;28;20200;-72
2023/10/26 18:02:09;;;;;;;21.27;13.13;;;;;11.30;98784.00;;;;10501734;28;20208;-72
2023/10/26 18:07:14;;;;;;;18.07;14.43;;;;;11.20;98778.00;;;;10524034;28;20200;-72
2023/10/26 18:12:16;;;;;;;18.67;14.80;;;;;11.10;98761.00;;;;10502126;28;20204;-72
2023/10/26 18:17:20;;;;;;;20.47;13.70;;;;;10.90;98762.00;;;;10513439;27;20197;-72
2023/10/26 18:22:22;;;;;;;20.13;13.75;;;;;10.80;98767.00;;;;10535412;27;20251;-73
2023/10/26 18:27:24;;;;;;;22.00;14.47;;;;;10.70;98770.00;;;;10533377;27;20219;-72
2023/10/26 18:32:26;;;;;;;17.77;14.30;;;;;10.60;98778.00;;;;10530198;27;20278;-74
2023/10/26 18:37:28;;;;;;;25.83;17.33;;;;;10.60;98772.00;;;;10514031;27;20196;-73
2023/10/26 18:42:30;;;;;;;24.97;19.03;;;;;10.60;98776.00;;;;10517552;27;20315;-73
2023/10/26 18:47:31;;;;;;;33.20;19.30;;;;;10.60;98769.00;;;;10536086;27;20275;-72
2023/10/26 18:52:33;;;;;;;25.03;15.17;;;;;10.60;98764.00;;;;10516770;27;20200;-72
2023/10/26 18:57:35;;;;;;;29.47;17.10;;;;;10.60;98766.00;;;;10533051;27;20188;-72
2023/10/26 19:02:37;;;;;;;25.93;16.53;;;;;10.60;98762.00;;;;10517585;27;20231;-74
2023/10/26 19:07:39;;;;;;;27.93;15.80;;;;;10.50;98773.00;;;;10533994;27;20267;-74
2023/10/26 19:12:41;;;;;;;31.93;13.87;;;;;10.50;98770.00;;;;10534864;27;20272;-74
2023/10/26 19:17:43;;;;;;;30.47;12.83;;;;;10.50;98765.00;;;;10517963;27;20559;-74
2023/10/26 19:22:49;;;;;;;28.60;11.60;;;;;10.60;98770.00;;;;10496311;27;20266;-74
2023/10/26 19:27:53;;;;;;;33.00;10.87;;;;;10.50;98765.00;;;;10533957;27;20184;-74
2023/10/26 19:32:58;;;;;;;30.50;9.60;;;;;10.50;98776.00;;;;10521040;27;20197;-74
2023/10/26 19:38:00;;;;;;;37.40;11.03;;;;;10.50;98766.00;;;;10536584;27;20189;-75
2023/10/26 19:43:03;;;;;;;28.73;9.53;;;;;10.50;98765.00;;;;10534546;27;21054;-74
2023/10/26 19:48:05;;;;;;;25.23;8.23;;;;;10.40;98756.00;;;;10535316;27;20265;-74
2023/10/26 19:53:07;;;;;;;26.17;8.67;;;;;10.40;98756.00;;;;10498251;27;20295;-75
2023/10/26 19:58:09;;;;;;;34.90;9.20;;;;;10.30;98750.00;;;;10501601;27;20568;-75
2023/10/26 20:03:11;;;;;;;22.53;8.27;;;;;10.30;98751.00;;;;10505034;27;20201;-74
2023/10/26 20:08:13;;;;;;;26.23;8.27;;;;;10.20;98754.00;;;;10548429;27;20188;-74
2023/10/26 20:13:14;;;;;;;33.00;9.47;;;;;10.20;98746.00;;;;10534264;28;20877;-73
2023/10/26 20:18:16;;;;;;;24.67;8.60;;;;;10.20;98738.00;;;;10537600;28;20290;-74
2023/10/26 20:23:19;;;;;;;24.03;8.33;;;;;10.20;98739.00;;;;10548592;28;20196;-74
2023/10/26 20:28:21;;;;;;;24.00;7.87;;;;;10.20;98733.00;;;;10523252;27;20379;-73
2023/10/26 20:33:23;;;;;;;31.50;8.90;;;;;10.30;98718.00;;;;10537572;28;20181;-73
2023/10/26 20:38:25;;;;;;;27.00;8.53;;;;;10.40;98713.00;;;;10536985;28;20211;-73
2023/10/26 20:43:27;;;;;;;25.40;8.33;;;;;10.40;98711.00;;;;10517309;27;20630;-73
2023/10/26 20:48:29;;;;;;;35.63;9.47;;;;;10.40;98700.00;;;;10561205;27;20275;-73
2023/10/26 20:53:32;;;;;;;30.20;9.17;;;;;10.40;98698.00;;;;10529143;28;20200;-73
2023/10/26 20:58:35;;;;;;;24.97;8.57;;;;;10.50;98688.00;;;;10530993;28;20287;-73
2023/10/26 21:03:39;;;;;;;24.73;8.67;;;;;10.50;98674.00;;;;10556963;27;20591;-73
2023/10/26 21:08:43;;;;;;;29.63;9.60;;;;;10.50;98679.00;;;;10534832;28;20688;-73
2023/10/26 21:13:45;;;;;;;26.67;9.87;;;;;10.50;98665.00;;;;10522921;28;20193;-73
2023/10/26 21:18:48;;;;;;;35.50;10.93;;;;;10.50;98664.00;;;;10554712;28;20292;-73
2023/10/26 21:23:50;;;;;;;31.43;9.70;;;;;10.50;98670.00;;;;10547897;28;20215;-73
2023/10/26 21:28:54;;;;;;;30.73;9.17;;;;;10.50;98655.00;;;;10547598;28;20200;-73
2023/10/26 21:33:55;;;;;;;26.13;9.40;;;;;10.50;98657.00;;;;10533264;28;20266;-73
2023/10/26 21:38:57;;;;;;;35.47;9.40;;;;;10.40;98650.00;;;;10543402;28;20196;-73
2023/10/26 21:44:00;;;;;;;28.03;8.13;;;;;10.40;98646.00;;;;10547270;28;20193;-73
2023/10/26 21:49:02;;;;;;;28.13;9.30;;;;;10.40;98646.00;;;;10562124;27;20198;-73
2023/10/26 21:54:04;;;;;;;30.47;8.17;;;;;10.40;98641.00;;;;10579503;27;20199;-73
2023/10/26 21:59:07;;;;;;;39.03;8.60;;;;;10.40;98631.00;;;;10557387;27;20206;-73
2023/10/26 22:04:09;;;;;;;33.00;7.77;;;;;10.40;98626.00;;;;10573413;27;20279;-73
2023/10/26 22:09:23;;;;;;;34.83;8.67;;;;;10.40;98624.00;;;;10555973;27;20193;-73
2023/10/26 22:14:25;;;;;;;35.17;8.73;;;;;10.40;98633.00;;;;10568821;27;20196;-73
2023/10/26 22:19:26;;;;;;;28.80;8.87;;;;;10.40;98621.00;;;;10534516;27;20934;-74
2023/10/26 22:24:28;;;;;;;34.13;7.90;;;;;10.40;98617.00;;;;10559983;27;20857;-73
2023/10/26 22:29:30;;;;;;;27.03;7.83;;;;;10.40;98605.00;;;;10539480;27;20210;-74
2023/10/26 22:34:32;;;;;;;32.43;7.93;;;;;10.40;98608.00;;;;10547470;27;20193;-73
2023/10/26 22:39:34;;;;;;;35.60;8.10;;;;;10.40;98601.00;;;;10562085;27;20212;-73
2023/10/26 22:44:36;;;;;;;28.07;8.07;;;;;10.50;98600.00;;;;10553353;27;20205;-75
2023/10/26 22:49:38;;;;;;;26.43;6.10;;;;;10.50;98607.00;;;;10526800;27;20204;-74
2023/10/26 22:54:40;;;;;;;29.37;6.63;;;;;10.50;98608.00;;;;10559152;27;20254;-75
2023/10/26 22:59:45;;;;;;;27.37;7.10;;;;;10.50;98605.00;;;;10543749;27;20232;-74
2023/10/26 23:04:47;;;;;;;29.00;7.30;;;;;10.50;98608.00;;;;10551094;27;20235;-75
2023/10/26 23:09:49;;;;;;;35.07;8.07;;;;;10.50;98602.00;;;;10563456;27;20224;-75
2023/10/26 23:14:51;;;;;;;37.30;7.47;;;;;10.60;98599.00;;;;10557351;27;20203;-75
2023/10/26 23:19:52;;;;;;;24.83;7.50;;;;;10.60;98607.00;;;;10561101;27;20276;-76
2023/10/26 23:24:54;;;;;;;22.80;6.50;;;;;10.60;98610.00;;;;10574200;27;20754;-75
2023/10/26 23:29:59;;;;;;;25.58;6.90;;;;;10.60;98607.00;;;;10565204;27;20201;-75
2023/10/26 23:35:01;;;;;;;26.07;6.27;;;;;10.50;98597.00;;;;10526612;27;20215;-76
2023/10/26 23:40:04;;;;;;;26.87;6.90;;;;;10.60;98596.00;;;;10557892;27;20746;-75
2023/10/26 23:45:06;;;;;;;23.57;7.00;;;;;10.50;98583.00;;;;10551714;27;20203;-74
2023/10/26 23:50:08;;;;;;;22.40;6.97;;;;;10.60;98586.00;;;;10549074;27;20206;-73
2023/10/26 23:55:10;;;;;;;31.20;7.40;;;;;10.60;98584.00;;;;10540949;27;20204;-74
